Time;durP1;ratioP1;P1;durP2;ratioP2;P2;SDS_P1;SDS_P2;PMS_P1;PMS_P2;Temp;Humidity;BMP_temperature;BMP_pressure;BME280_temperature;BME280_humidity;BME280_pressure;Samples;Min_cycle;Max_cycle;Signal;HPM_P1;HPM_P2
2022/10/16 00:01:29;;;;;;;28.07;16.00;;;;;;;5.45;89.28;98356.74;1710938;81;21024;-75
2022/10/16 00:03:59;;;;;;;29.15;16.15;;;;;;;5.43;89.02;98355.43;1731627;81;21009;-75
2022/10/16 00:06:28;;;;;;;32.05;16.87;;;;;;;5.39;88.92;98357.20;1737824;81;21000;-75
2022/10/16 00:08:55;;;;;;;28.15;17.05;;;;;;;5.38;89.72;98357.20;1754695;81;21032;-75
2022/10/16 00:11:33;;;;;;;32.20;17.02;;;;;;;5.35;90.04;98362.02;1707315;83;21004;-76
2022/10/16 00:14:04;;;;;;;36.45;16.90;;;;;;;5.32;89.82;98359.42;1715708;81;20993;-76
2022/10/16 00:16:31;;;;;;;30.40;17.52;;;;;;;5.29;89.49;98362.05;1723874;81;21429;-76
2022/10/16 00:18:58;;;;;;;28.25;15.50;;;;;;;5.26;89.56;98364.25;1733081;81;21430;-76
2022/10/16 00:21:29;;;;;;;28.42;16.17;;;;;;;5.25;89.43;98358.56;1720143;83;20971;-75
2022/10/16 00:24:04;;;;;;;29.87;15.98;;;;;;;5.24;89.35;98365.13;1746623;81;21416;-76
2022/10/16 00:26:33;;;;;;;26.95;15.58;;;;;;;5.22;89.31;98366.44;1691940;84;21481;-75
2022/10/16 00:29:01;;;;;;;25.70;16.52;;;;;;;5.19;89.31;98359.86;1720164;82;21439;-75
2022/10/16 00:31:28;;;;;;;29.35;16.32;;;;;;;5.16;89.33;98358.58;1700811;82;21766;-75
2022/10/16 00:33:54;;;;;;;31.95;16.35;;;;;;;5.13;89.28;98363.39;1703054;82;21038;-76
2022/10/16 00:36:25;;;;;;;29.57;16.48;;;;;;;5.11;89.40;98375.64;1712854;82;21412;-75
2022/10/16 00:38:55;;;;;;;26.68;15.10;;;;;;;5.11;90.18;98372.16;1696502;82;21135;-75
2022/10/16 00:41:24;;;;;;;28.67;15.50;;;;;;;5.10;90.36;98373.90;1708750;82;21010;-76
2022/10/16 00:43:58;;;;;;;25.88;14.90;;;;;;;5.07;89.60;98376.52;1706358;82;21495;-76
2022/10/16 00:46:42;;;;;;;28.87;16.23;;;;;;;5.10;89.67;98380.47;1712978;82;21011;-75
2022/10/16 00:49:15;;;;;;;27.15;14.25;;;;;;;5.13;90.00;98380.48;1710450;83;21010;-76
2022/10/16 00:51:52;;;;;;;24.05;13.62;;;;;;;5.18;89.82;98375.66;1690302;82;21067;-75
2022/10/16 00:54:30;;;;;;;24.77;13.40;;;;;;;5.17;89.75;98370.83;1688887;83;21001;-75
2022/10/16 00:57:01;;;;;;;27.70;14.23;;;;;;;5.18;89.99;98369.94;1692136;82;21011;-75
2022/10/16 00:59:33;;;;;;;23.55;13.93;;;;;;;5.22;89.82;98371.69;1711185;83;21040;-75
2022/10/16 01:02:01;;;;;;;22.75;13.25;;;;;;;5.22;89.68;98373.44;1713808;82;20991;-75
2022/10/16 01:04:36;;;;;;;19.82;12.28;;;;;;;5.22;89.75;98379.58;1707332;82;21060;-74
2022/10/16 01:07:48;;;;;;;26.15;13.53;;;;;;;5.25;89.85;98380.02;1701000;82;21449;-74
2022/10/16 01:10:28;;;;;;;25.23;12.88;;;;;;;5.27;90.04;98380.87;1701021;82;21076;-74
2022/10/16 01:13:16;;;;;;;22.65;13.22;;;;;;;5.31;89.97;98379.98;1704489;82;21464;-73
2022/10/16 01:15:58;;;;;;;24.65;13.25;;;;;;;5.32;89.78;98377.82;1693005;82;20972;-74
2022/10/16 01:18:47;;;;;;;21.12;12.65;;;;;;;5.28;89.71;98364.25;1692229;82;20961;-74
2022/10/16 01:21:33;;;;;;;23.10;12.98;;;;;;;5.29;89.95;98377.81;1692515;82;21409;-74
2022/10/16 01:24:41;;;;;;;21.05;13.00;;;;;;;5.29;90.05;98369.93;1703680;82;21006;-73
2022/10/16 01:27:25;;;;;;;19.35;11.15;;;;;;;5.30;89.92;98370.36;1712239;82;21049;-73
2022/10/16 01:30:03;;;;;;;21.93;12.63;;;;;;;5.31;89.95;98373.42;1697241;83;21094;-73
2022/10/16 01:32:59;;;;;;;22.60;11.70;;;;;;;5.27;89.78;98371.67;1693541;82;21058;-73
2022/10/16 01:35:37;;;;;;;21.45;11.68;;;;;;;5.26;89.63;98377.39;1695849;82;21018;-73
2022/10/16 01:38:12;;;;;;;21.05;11.08;;;;;;;5.24;89.66;98379.58;1700305;82;21097;-73
2022/10/16 01:40:44;;;;;;;18.52;11.65;;;;;;;5.23;89.76;98379.16;1706267;83;20993;-73
2022/10/16 01:43:15;;;;;;;21.40;11.38;;;;;;;5.22;89.45;98382.63;1713607;82;21080;-74
2022/10/16 01:45:44;;;;;;;18.57;11.60;;;;;;;5.17;89.62;98386.59;1696263;82;21021;-72
2022/10/16 01:48:16;;;;;;;21.55;11.50;;;;;;;5.18;89.79;98388.34;1710035;82;21060;-72
2022/10/16 01:50:48;;;;;;;23.85;12.93;;;;;;;5.15;89.85;98387.91;1692270;82;21120;-73
2022/10/16 01:53:16;;;;;;;19.27;11.50;;;;;;;5.13;89.71;98387.05;1706366;82;21081;-72
2022/10/16 01:55:46;;;;;;;20.72;11.68;;;;;;;5.13;89.83;98390.09;1689246;84;21438;-73
2022/10/16 01:58:15;;;;;;;18.15;11.80;;;;;;;5.08;89.52;98390.12;1655679;85;21046;-73
2022/10/16 02:00:45;;;;;;;19.80;11.75;;;;;;;5.04;89.43;98393.62;1670979;83;21065;-73
2022/10/16 02:03:16;;;;;;;21.00;12.23;;;;;;;5.03;89.85;98395.81;1680814;83;21026;-73
2022/10/16 02:05:55;;;;;;;20.45;11.78;;;;;;;5.00;89.61;98402.38;1630427;86;21040;-73
2022/10/16 02:08:25;;;;;;;20.77;12.33;;;;;;;4.96;89.63;98403.24;1692418;82;21629;-74
2022/10/16 02:10:52;;;;;;;22.22;12.03;;;;;;;4.94;89.53;98402.38;1703018;82;21028;-74
2022/10/16 02:13:24;;;;;;;23.07;12.68;;;;;;;4.89;89.28;98405.88;1692221;82;20966;-74
2022/10/16 02:15:52;;;;;;;24.02;13.25;;;;;;;4.81;89.16;98409.39;1692547;82;21009;-74
2022/10/16 02:18:21;;;;;;;25.90;13.70;;;;;;;4.75;88.94;98414.19;1692480;82;21096;-74
2022/10/16 02:21:00;;;;;;;25.57;13.48;;;;;;;4.69;88.99;98418.13;1691547;82;21057;-74
2022/10/16 02:24:00;;;;;;;28.02;14.10;;;;;;;4.62;89.06;98418.10;1680620;82;21030;-74
2022/10/16 02:26:32;;;;;;;25.25;14.30;;;;;;;4.58;89.13;98406.30;1712460;82;20985;-74
2022/10/16 02:29:04;;;;;;;25.55;13.22;;;;;;;4.52;89.13;98420.28;1701481;83;21045;-74
2022/10/16 02:31:36;;;;;;;22.58;12.78;;;;;;;4.49;89.25;98416.36;1701417;82;21082;-74
2022/10/16 02:34:05;;;;;;;27.10;13.85;;;;;;;4.46;89.28;98422.48;1712815;82;21009;-74
2022/10/16 02:36:33;;;;;;;23.00;13.32;;;;;;;4.41;89.22;98425.95;1721349;83;21033;-74
2022/10/16 02:39:03;;;;;;;22.25;12.53;;;;;;;4.39;89.27;98425.09;1694611;82;21003;-74
2022/10/16 02:41:31;;;;;;;24.98;12.85;;;;;;;4.33;89.13;98424.63;1704320;82;21045;-74
2022/10/16 02:43:58;;;;;;;21.90;12.13;;;;;;;4.29;89.25;98427.69;1712810;82;21006;-74
2022/10/16 02:46:24;;;;;;;22.02;12.30;;;;;;;4.27;89.22;98428.55;1707203;83;21104;-74
2022/10/16 02:48:51;;;;;;;21.42;12.28;;;;;;;4.25;89.32;98427.66;1702148;82;21124;-74
2022/10/16 02:51:17;;;;;;;22.98;11.53;;;;;;;4.21;89.28;98426.78;1692640;82;21022;-74
2022/10/16 02:53:44;;;;;;;22.27;11.53;;;;;;;4.19;89.51;98429.84;1692496;82;21480;-74
2022/10/16 02:56:10;;;;;;;22.10;11.78;;;;;;;4.17;89.76;98433.77;1712608;82;21080;-74
2022/10/16 02:58:37;;;;;;;21.97;11.65;;;;;;;4.18;89.58;98432.00;1691557;82;21056;-73
2022/10/16 03:01:04;;;;;;;18.52;11.30;;;;;;;4.14;89.27;98428.50;1698166;82;20989;-74
2022/10/16 03:03:30;;;;;;;21.48;10.78;;;;;;;4.09;89.96;98429.81;1706949;82;21046;-73
2022/10/16 03:05:56;;;;;;;20.05;11.00;;;;;;;4.09;90.05;98432.44;1695593;82;21443;-73
2022/10/16 03:08:25;;;;;;;17.73;11.20;;;;;;;4.10;90.14;98434.60;1697676;82;21460;-74
2022/10/16 03:10:52;;;;;;;17.45;10.23;;;;;;;4.11;89.82;98438.11;1712696;83;21108;-73
2022/10/16 03:13:20;;;;;;;17.90;11.22;;;;;;;4.09;89.71;98436.37;1692554;82;20983;-73
2022/10/16 03:15:48;;;;;;;20.17;11.48;;;;;;;4.08;89.79;98435.05;1711499;83;20989;-73
2022/10/16 03:18:15;;;;;;;23.18;10.80;;;;;;;4.07;89.77;98431.98;1693191;82;21015;-73
2022/10/16 03:20:43;;;;;;;19.77;11.35;;;;;;;4.07;89.76;98439.86;1702048;82;21065;-73
2022/10/16 03:23:13;;;;;;;16.40;9.90;;;;;;;4.04;89.75;98444.66;1698124;82;21414;-73
2022/10/16 03:25:40;;;;;;;21.35;11.28;;;;;;;4.02;89.61;98448.14;1706325;82;20982;-73
2022/10/16 03:28:07;;;;;;;23.52;11.00;;;;;;;4.00;89.57;98453.37;1712805;82;21029;-74
2022/10/16 03:30:33;;;;;;;20.82;10.65;;;;;;;4.00;89.57;98455.11;1705148;83;21379;-73
2022/10/16 03:33:00;;;;;;;16.93;10.35;;;;;;;3.99;89.50;98455.98;1695873;82;20998;-74
2022/10/16 03:35:26;;;;;;;18.48;10.88;;;;;;;4.01;90.04;98461.68;1711303;82;21516;-74
2022/10/16 03:37:53;;;;;;;18.52;10.82;;;;;;;4.04;89.79;98466.06;1692795;82;21048;-74
2022/10/16 03:40:20;;;;;;;18.60;10.35;;;;;;;4.05;89.91;98465.19;1656978;84;21061;-73
2022/10/16 03:42:46;;;;;;;16.20;10.25;;;;;;;4.07;90.05;98472.19;1696534;82;21046;-74
2022/10/16 03:45:13;;;;;;;20.50;10.15;;;;;;;4.13;90.47;98482.27;1716880;82;21001;-74
2022/10/16 03:47:40;;;;;;;15.72;9.43;;;;;;;4.18;90.28;98483.16;1698883;82;21012;-74
2022/10/16 03:50:08;;;;;;;16.95;9.43;;;;;;;4.22;90.42;98487.13;1679863;84;21020;-74
2022/10/16 03:52:35;;;;;;;16.82;8.43;;;;;;;4.24;90.38;98491.08;1705288;84;20996;-74
2022/10/16 03:55:01;;;;;;;14.70;9.23;;;;;;;4.28;90.50;98489.34;1707912;84;21051;-74
2022/10/16 03:57:27;;;;;;;16.15;8.40;;;;;;;4.28;89.88;98498.06;1707762;84;21406;-74
2022/10/16 03:59:54;;;;;;;16.15;8.93;;;;;;;4.30;90.16;98500.70;1707810;84;20984;-75
2022/10/16 04:02:20;;;;;;;13.72;8.63;;;;;;;4.30;89.92;98498.08;1692307;84;21084;-74
2022/10/16 04:04:47;;;;;;;16.67;8.50;;;;;;;4.29;89.99;98494.59;1707414;84;21012;-74
2022/10/16 04:07:14;;;;;;;16.00;8.65;;;;;;;4.29;90.04;98493.28;1702424;82;21040;-74
2022/10/16 04:09:40;;;;;;;16.00;9.25;;;;;;;4.30;90.08;98498.97;1694181;84;20992;-74
2022/10/16 04:12:07;;;;;;;15.53;8.73;;;;;;;4.29;89.72;98504.20;1706894;84;21448;-74
2022/10/16 04:14:36;;;;;;;20.30;9.65;;;;;;;4.29;89.95;98500.27;1687925;84;20961;-74
2022/10/16 04:17:02;;;;;;;19.07;9.30;;;;;;;4.25;89.83;98504.63;1707581;84;21477;-74
2022/10/16 04:19:29;;;;;;;19.73;9.25;;;;;;;4.24;89.91;98508.13;1707794;84;20953;-74
2022/10/16 04:21:55;;;;;;;16.42;9.35;;;;;;;4.19;89.94;98505.47;1696688;84;21005;-74
2022/10/16 04:24:21;;;;;;;14.40;8.85;;;;;;;4.21;90.22;98505.06;1707877;84;21489;-74
2022/10/16 04:26:48;;;;;;;13.50;8.63;;;;;;;4.26;90.39;98503.75;1694049;84;21004;-73
2022/10/16 04:29:14;;;;;;;13.78;8.90;;;;;;;4.25;89.93;98505.94;1707708;84;21410;-74
2022/10/16 04:31:41;;;;;;;12.23;8.35;;;;;;;4.22;89.94;98503.30;1707695;84;21096;-74
2022/10/16 04:34:07;;;;;;;13.30;8.00;;;;;;;4.19;89.82;98508.09;1707759;84;20988;-74
2022/10/16 04:36:33;;;;;;;15.20;8.33;;;;;;;4.15;89.95;98515.50;1704830;84;21046;-74
2022/10/16 04:39:00;;;;;;;15.32;9.68;;;;;;;4.14;89.87;98516.80;1691396;83;21024;-74
2022/10/16 04:41:26;;;;;;;15.30;9.73;;;;;;;4.13;90.09;98515.95;1711253;81;21489;-74
2022/10/16 04:43:53;;;;;;;14.93;8.98;;;;;;;4.13;90.07;98517.67;1715871;81;20962;-74
2022/10/16 04:46:19;;;;;;;16.02;9.25;;;;;;;4.09;90.05;98512.86;1708871;81;21463;-74
2022/10/16 04:48:46;;;;;;;14.55;9.23;;;;;;;4.06;89.56;98518.08;1705883;81;21013;-74
2022/10/16 04:51:13;;;;;;;16.55;9.20;;;;;;;4.01;89.76;98531.19;1705762;81;20986;-74
2022/10/16 04:53:40;;;;;;;15.90;9.70;;;;;;;3.98;89.72;98528.98;1724910;83;20985;-74
2022/10/16 04:56:06;;;;;;;16.42;8.58;;;;;;;3.95;89.94;98521.98;1705891;81;21025;-74
2022/10/16 04:58:33;;;;;;;16.80;9.10;;;;;;;3.92;89.86;98529.39;1706083;81;21431;-74
2022/10/16 05:00:59;;;;;;;17.62;8.95;;;;;;;3.90;89.95;98527.63;1726246;81;21005;-74
2022/10/16 05:03:26;;;;;;;14.10;8.63;;;;;;;3.87;89.57;98528.91;1714761;81;21028;-74
2022/10/16 05:05:52;;;;;;;15.90;9.75;;;;;;;3.83;89.63;98531.50;1712305;81;21004;-74
2022/10/16 05:08:19;;;;;;;16.62;8.98;;;;;;;3.81;89.48;98533.67;1705636;81;21412;-74
2022/10/16 05:10:45;;;;;;;19.25;9.95;;;;;;;3.80;89.75;98538.06;1726096;83;20978;-74
2022/10/16 05:13:12;;;;;;;17.62;9.40;;;;;;;3.78;89.71;98541.09;1708566;81;21008;-74
2022/10/16 05:15:39;;;;;;;14.70;9.18;;;;;;;3.77;89.60;98547.63;1705789;81;20999;-74
2022/10/16 05:18:06;;;;;;;21.93;10.72;;;;;;;3.75;89.78;98545.44;1712089;81;21441;-74
2022/10/16 05:20:34;;;;;;;20.35;10.63;;;;;;;3.77;89.96;98548.52;1719714;81;20974;-74
2022/10/16 05:23:00;;;;;;;16.70;9.83;;;;;;;3.80;90.16;98551.17;1709648;81;21025;-74
2022/10/16 05:25:27;;;;;;;18.10;10.75;;;;;;;3.81;90.12;98545.05;1723944;81;21036;-74
2022/10/16 05:27:53;;;;;;;21.73;10.30;;;;;;;3.82;90.41;98553.81;1726036;81;21000;-74
2022/10/16 05:30:20;;;;;;;19.05;9.73;;;;;;;3.80;90.27;98562.08;1705808;81;21002;-74
2022/10/16 05:32:50;;;;;;;20.52;9.85;;;;;;;3.81;90.51;98560.78;1724830;83;21000;-74
2022/10/16 05:35:18;;;;;;;19.40;10.13;;;;;;;3.82;90.29;98565.16;1714224;81;21020;-74
2022/10/16 05:37:46;;;;;;;21.65;10.65;;;;;;;3.86;90.47;98560.80;1725403;81;20992;-74
2022/10/16 05:40:12;;;;;;;18.75;10.45;;;;;;;3.90;90.40;98570.45;1710403;81;21086;-74
2022/10/16 05:42:40;;;;;;;16.67;10.20;;;;;;;3.94;90.71;98569.61;1668655;84;21394;-74
2022/10/16 05:45:11;;;;;;;17.42;10.43;;;;;;;3.98;90.46;98573.12;1696458;82;20996;-74
2022/10/16 05:47:38;;;;;;;17.02;11.05;;;;;;;4.01;90.97;98577.08;1704266;83;21041;-74
2022/10/16 05:50:05;;;;;;;26.00;11.00;;;;;;;4.04;90.83;98576.22;1723803;82;21016;-74
2022/10/16 05:52:31;;;;;;;17.15;9.85;;;;;;;4.08;91.05;98574.92;1705099;82;21020;-74
2022/10/16 05:54:58;;;;;;;17.98;10.18;;;;;;;4.10;91.00;98578.88;1707900;83;21009;-74
2022/10/16 05:57:24;;;;;;;18.50;9.88;;;;;;;4.13;90.97;98578.91;1702314;82;20997;-74
2022/10/16 05:59:51;;;;;;;17.00;10.38;;;;;;;4.14;90.88;98579.77;1708017;83;21497;-74
2022/10/16 06:02:17;;;;;;;16.80;9.63;;;;;;;4.16;90.90;98581.98;1724041;82;21049;-74
2022/10/16 06:04:43;;;;;;;18.98;10.30;;;;;;;4.20;91.10;98590.31;1672457;83;21388;-74
2022/10/16 06:07:11;;;;;;;16.10;9.25;;;;;;;4.26;91.07;98591.66;1724805;83;21024;-75
2022/10/16 06:09:37;;;;;;;15.40;9.48;;;;;;;4.32;91.19;98589.05;1687226;84;21391;-74
2022/10/16 06:12:04;;;;;;;17.27;9.83;;;;;;;4.38;90.99;98586.02;1694500;84;21001;-74
2022/10/16 06:14:30;;;;;;;17.15;10.53;;;;;;;4.42;91.14;98602.23;1703239;84;20964;-74
2022/10/16 06:16:56;;;;;;;23.87;12.73;;;;;;;4.46;91.36;98594.81;1696486;82;21120;-74
2022/10/16 06:19:23;;;;;;;22.30;10.85;;;;;;;4.51;91.27;98595.71;1673921;83;21014;-74
2022/10/16 06:21:50;;;;;;;18.27;10.15;;;;;;;4.60;91.19;98598.38;1698645;84;20973;-74
2022/10/16 06:24:17;;;;;;;16.10;10.50;;;;;;;4.68;91.15;98599.72;1706305;82;20978;-74
2022/10/16 06:26:44;;;;;;;20.88;11.63;;;;;;;4.77;91.11;98600.19;1661090;84;21024;-74
2022/10/16 06:29:11;;;;;;;19.48;10.80;;;;;;;4.85;91.16;98599.78;1696720;82;21013;-75
2022/10/16 06:31:37;;;;;;;16.85;10.30;;;;;;;4.98;91.55;98601.16;1712156;81;21425;-74
2022/10/16 06:34:08;;;;;;;14.05;7.28;;;;;;;5.07;91.37;98597.66;1721846;81;21005;-74
2022/10/16 06:36:32;;;;;;;14.65;7.70;;;;;;;5.19;91.31;98599.44;1723807;81;21021;-75
2022/10/16 06:38:59;;;;;;;14.75;9.00;;;;;;;5.29;91.52;98592.02;1706954;81;20962;-75
2022/10/16 06:41:28;;;;;;;15.68;9.55;;;;;;;5.41;91.68;98593.78;1729126;81;21004;-74
2022/10/16 06:43:54;;;;;;;16.30;9.40;;;;;;;5.54;91.88;98589.41;1695958;82;21006;-74
2022/10/16 06:46:25;;;;;;;14.60;9.45;;;;;;;5.67;91.74;98596.85;1695552;82;21040;-75
2022/10/16 06:48:53;;;;;;;15.85;9.93;;;;;;;5.81;91.83;98600.78;1715397;82;21023;-75
2022/10/16 06:51:23;;;;;;;21.85;9.85;;;;;;;5.94;91.73;98606.94;1707197;83;21009;-75
2022/10/16 06:53:59;;;;;;;19.35;10.35;;;;;;;6.06;91.64;98596.84;1704364;82;21377;-75
2022/10/16 06:56:27;;;;;;;17.12;10.23;;;;;;;6.18;91.41;98599.89;1713721;82;21007;-74
2022/10/16 06:58:54;;;;;;;15.98;10.65;;;;;;;6.28;91.37;98604.71;1696419;82;21014;-73
2022/10/16 07:01:23;;;;;;;19.05;12.73;;;;;;;6.39;91.26;98605.55;1716531;82;21428;-73
2022/10/16 07:03:50;;;;;;;18.75;11.63;;;;;;;;;;1714341;83;20973;-73
2022/10/16 07:06:22;;;;;;;19.10;12.98;;;;;;;6.59;91.01;98610.77;1704134;82;21040;-74
2022/10/16 07:08:50;;;;;;;23.85;14.20;;;;;;;6.69;91.01;98610.73;1665325;84;21048;-74
2022/10/16 07:11:23;;;;;;;26.52;16.82;;;;;;;6.80;91.21;98612.88;1708032;81;21483;-74
2022/10/16 07:13:51;;;;;;;31.75;19.67;;;;;;;6.92;90.89;98617.22;1707701;81;21135;-73
2022/10/16 07:16:23;;;;;;;39.70;24.23;;;;;;;7.00;90.43;98623.77;1731865;81;20973;-73
2022/10/16 07:18:51;;;;;;;46.60;28.47;;;;;;;7.06;90.40;98617.13;1720492;81;21035;-73
2022/10/16 07:21:20;;;;;;;49.85;30.40;;;;;;;7.13;90.23;98617.55;1716682;81;21001;-73
2022/10/16 07:23:52;;;;;;;50.17;30.60;;;;;;;7.17;89.82;98628.95;1723745;81;21052;-73
2022/10/16 07:26:19;;;;;;;50.85;31.65;;;;;;;7.23;89.59;98618.82;1708080;81;21400;-73
2022/10/16 07:28:45;;;;;;;55.55;31.57;;;;;;;7.29;89.24;98625.36;1681479;83;21002;-73
2022/10/16 07:31:16;;;;;;;47.78;29.95;;;;;;;7.32;88.55;98631.06;1722595;81;21031;-74
2022/10/16 07:33:44;;;;;;;54.83;31.50;;;;;;;7.33;88.26;98630.17;1717796;83;21027;-75
2022/10/16 07:36:12;;;;;;;49.58;29.45;;;;;;;7.35;88.63;98634.55;1717920;81;21430;-75
2022/10/16 07:38:39;;;;;;;42.33;25.00;;;;;;;7.39;88.63;98623.53;1715509;81;21127;-74
2022/10/16 07:41:10;;;;;;;42.40;24.50;;;;;;;7.44;88.48;98621.77;1660115;84;21366;-75
2022/10/16 07:43:36;;;;;;;39.75;22.65;;;;;;;7.45;88.44;98627.47;1739775;82;21032;-74
2022/10/16 07:46:03;;;;;;;35.78;23.20;;;;;;;7.50;88.36;98626.99;1733204;81;21430;-74
2022/10/16 07:48:33;;;;;;;39.50;22.82;;;;;;;7.55;88.29;98631.37;1704600;83;21390;-74
2022/10/16 07:51:05;;;;;;;34.18;20.92;;;;;;;7.60;88.44;98635.70;1704524;81;21029;-74
2022/10/16 07:53:32;;;;;;;39.27;21.33;;;;;;;7.66;88.42;98629.52;1704832;81;21065;-74
2022/10/16 07:56:02;;;;;;;37.15;20.05;;;;;;;7.73;88.48;98629.88;1725280;81;21030;-75
2022/10/16 07:58:29;;;;;;;34.33;19.12;;;;;;;7.81;88.52;98636.88;1704290;81;21396;-74
2022/10/16 08:00:57;;;;;;;31.80;18.10;;;;;;;7.88;88.50;98626.69;1725345;81;21089;-75
2022/10/16 08:03:25;;;;;;;32.25;19.40;;;;;;;7.93;88.10;98627.53;1719599;81;20968;-74
2022/10/16 08:05:52;;;;;;;30.97;18.60;;;;;;;8.00;88.14;98632.31;1706777;81;21017;-75
2022/10/16 08:08:19;;;;;;;31.42;18.35;;;;;;;8.05;88.19;98637.99;1722955;81;21012;-74
2022/10/16 08:10:46;;;;;;;34.18;18.12;;;;;;;8.12;88.10;98639.25;1724884;83;20984;-74
2022/10/16 08:13:14;;;;;;;25.90;16.12;;;;;;;8.17;87.73;98638.33;1724767;81;21032;-74
2022/10/16 08:15:43;;;;;;;26.75;16.85;;;;;;;8.22;87.65;98643.55;1704910;81;21530;-74
2022/10/16 08:18:11;;;;;;;27.52;16.05;;;;;;;8.26;87.43;98645.74;1725064;81;21468;-72
2022/10/16 08:20:39;;;;;;;23.87;15.88;;;;;;;8.28;87.29;98646.16;1720909;83;21037;-74
2022/10/16 08:23:05;;;;;;;22.10;15.65;;;;;;;8.32;87.08;98646.53;1712315;81;21024;-75
2022/10/16 08:25:34;;;;;;;27.82;16.90;;;;;;;8.38;87.38;98646.92;1704500;81;21041;-74
2022/10/16 08:28:08;;;;;;;22.95;15.80;;;;;;;8.45;87.22;98651.70;1704706;81;21045;-72
2022/10/16 08:30:35;;;;;;;24.90;16.85;;;;;;;8.49;86.98;98648.14;1704619;81;21006;-73
2022/10/16 08:33:03;;;;;;;25.05;16.45;;;;;;;8.53;86.83;98647.25;1706212;81;21478;-73
2022/10/16 08:35:29;;;;;;;23.80;16.12;;;;;;;8.57;86.55;98647.66;1705974;81;21009;-72
2022/10/16 08:37:56;;;;;;;24.15;16.07;;;;;;;8.64;86.75;98651.08;1704334;81;21028;-72
2022/10/16 08:40:34;;;;;;;25.65;16.60;;;;;;;8.72;86.83;98652.31;1704630;81;21049;-73
2022/10/16 08:43:35;;;;;;;22.17;14.55;;;;;;;8.80;86.79;98654.89;1704267;81;21010;-73
2022/10/16 08:46:22;;;;;;;22.10;15.23;;;;;;;8.85;86.21;98639.85;1716186;81;21028;-74
2022/10/16 08:48:55;;;;;;;25.77;15.85;;;;;;;8.92;86.25;98644.59;1704491;81;20982;-74
2022/10/16 08:51:35;;;;;;;23.87;14.78;;;;;;;8.98;86.12;98640.11;1704544;81;21350;-74
2022/10/16 08:54:34;;;;;;;22.37;14.10;;;;;;;9.02;84.80;98648.01;1707574;81;21006;-74
2022/10/16 08:57:17;;;;;;;23.22;14.68;;;;;;;9.04;85.05;98647.09;1715385;81;21340;-74
2022/10/16 08:59:45;;;;;;;22.93;14.58;;;;;;;9.07;85.05;98649.70;1704650;81;20958;-74
2022/10/16 09:02:41;;;;;;;20.85;14.75;;;;;;;9.14;85.19;98657.13;1724270;83;21012;-74
2022/10/16 09:05:46;;;;;;;22.45;14.23;;;;;;;9.21;85.14;98657.88;1704449;81;21013;-74
2022/10/16 09:08:51;;;;;;;24.37;15.50;;;;;;;9.30;85.23;98655.59;1704744;81;21004;-74
2022/10/16 09:11:39;;;;;;;28.40;16.00;;;;;;;9.37;84.80;98656.80;1725355;81;21022;-74
2022/10/16 09:14:49;;;;;;;40.00;15.10;;;;;;;9.45;84.48;98654.05;1724052;83;21336;-74
2022/10/16 09:17:59;;;;;;;33.70;20.00;;;;;;;9.55;84.76;98656.56;1705532;81;21042;-74
2022/10/16 09:20:59;;;;;;;32.50;19.37;;;;;;;9.67;84.54;98662.13;1704634;81;21008;-74
2022/10/16 09:23:31;;;;;;;30.45;18.92;;;;;;;9.74;84.38;98651.41;1704742;81;21033;-74
2022/10/16 09:25:59;;;;;;;27.00;18.45;;;;;;;9.84;84.09;98657.89;1676600;83;21020;-74
2022/10/16 09:28:26;;;;;;;35.73;18.37;;;;;;;9.90;84.28;98654.70;1732126;81;21076;-74
2022/10/16 09:30:54;;;;;;;28.38;17.75;;;;;;;10.02;84.25;98658.89;1688649;83;21046;-75
2022/10/16 09:33:34;;;;;;;29.82;17.50;;;;;;;10.10;84.13;98657.90;1725216;81;21428;-73
2022/10/16 09:36:04;;;;;;;33.28;17.27;;;;;;;10.19;84.04;98659.07;1721171;83;21064;-73
2022/10/16 09:38:34;;;;;;;23.75;17.25;;;;;;;10.29;83.88;98657.12;1713471;81;20996;-73
2022/10/16 09:41:11;;;;;;;25.50;16.20;;;;;;;10.39;83.74;98661.34;1726944;83;20997;-73
2022/10/16 09:43:56;;;;;;;28.62;17.70;;;;;;;10.47;83.56;98669.66;1702665;82;21048;-73
2022/10/16 09:46:38;;;;;;;21.97;15.38;;;;;;;10.58;83.61;98666.81;1704772;82;21057;-72
2022/10/16 09:49:22;;;;;;;24.02;16.00;;;;;;;10.68;82.70;98661.29;1715256;82;21021;-72
2022/10/16 09:51:50;;;;;;;21.95;14.93;;;;;;;10.81;82.58;98666.37;1690839;83;21108;-74
2022/10/16 09:54:21;;;;;;;23.15;15.03;;;;;;;10.94;82.19;98655.06;1694609;82;21456;-77
2022/10/16 09:56:54;;;;;;;24.67;15.32;;;;;;;11.09;82.77;98652.08;1710713;83;20997;-76
2022/10/16 09:59:26;;;;;;;22.75;16.40;;;;;;;11.22;82.59;98653.16;1703764;82;20950;-74
2022/10/16 10:01:55;;;;;;;24.60;15.10;;;;;;;11.34;82.22;98652.02;1708542;82;21058;-75
2022/10/16 10:04:25;;;;;;;22.60;15.70;;;;;;;11.41;81.95;98649.64;1717773;82;21029;-74
2022/10/16 10:06:57;;;;;;;28.23;17.12;;;;;;;11.56;82.05;98648.43;1723721;83;21021;-74
2022/10/16 10:09:34;;;;;;;26.12;17.57;;;;;;;11.64;80.96;98648.25;1720308;82;20970;-75
2022/10/16 10:12:06;;;;;;;28.42;19.48;;;;;;;11.67;81.32;98645.50;1709915;83;21372;-75
2022/10/16 10:14:48;;;;;;;31.93;18.70;;;;;;;11.81;80.86;98644.30;1703679;82;21417;-75
2022/10/16 10:17:22;;;;;;;28.42;18.20;;;;;;;11.92;80.53;98642.73;1712575;83;20988;-76
2022/10/16 10:20:03;;;;;;;32.35;20.52;;;;;;;12.00;81.23;98647.41;1695182;82;21006;-75
2022/10/16 10:22:41;;;;;;;30.50;19.23;;;;;;;12.18;80.89;98638.13;1701341;83;21039;-76
2022/10/16 10:25:19;;;;;;;26.93;18.80;;;;;;;12.70;81.77;98641.61;1710743;82;21081;-76
2022/10/16 10:28:01;;;;;;;28.35;18.70;;;;;;;13.71;80.09;98635.13;1706083;82;21025;-78
2022/10/16 10:30:51;;;;;;;24.98;17.62;;;;;;;14.77;77.37;98618.23;1709973;83;20997;-76
2022/10/16 10:33:33;;;;;;;23.45;17.05;;;;;;;15.85;74.15;98621.66;1681123;85;21010;-76
2022/10/16 10:36:21;;;;;;;22.87;16.70;;;;;;;16.93;72.56;98613.94;1649007;85;21064;-76
2022/10/16 10:39:09;;;;;;;20.77;16.30;;;;;;;17.80;69.29;98603.19;1662943;85;20983;-76
2022/10/16 10:42:12;;;;;;;20.45;15.63;;;;;;;18.65;64.96;98607.89;1677730;83;21018;-77
2022/10/16 10:44:46;;;;;;;18.85;16.05;;;;;;;20.43;64.87;98591.28;1666416;85;21022;-77
2022/10/16 10:47:44;;;;;;;20.20;15.83;;;;;;;20.43;64.87;98591.28;1678950;85;21027;-78
2022/10/16 10:50:34;;;;;;;20.68;15.58;;;;;;;21.18;62.76;98593.45;1670839;83;21015;-76
2022/10/16 10:53:38;;;;;;;22.48;16.52;;;;;;;21.88;58.78;98587.62;1668812;85;21046;-74
2022/10/16 10:56:46;;;;;;;20.17;17.00;;;;;;;21.94;56.26;98580.45;1668396;85;21003;-75
2022/10/16 10:59:40;;;;;;;20.10;16.77;;;;;;;22.48;55.08;98573.21;1672196;85;21061;-75
2022/10/16 11:02:36;;;;;;;17.67;15.97;;;;;;;22.78;53.12;98576.58;1668062;85;21085;-75
2022/10/16 11:05:42;;;;;;;20.48;16.57;;;;;;;22.77;51.66;98564.05;1668569;85;21031;-76
2022/10/16 11:08:39;;;;;;;20.23;16.95;;;;;;;22.78;50.52;98565.30;1673541;85;20999;-76
2022/10/16 11:11:26;;;;;;;20.27;16.90;;;;;;;22.84;50.47;98561.31;1667124;85;20999;-76
2022/10/16 11:14:07;;;;;;;20.82;17.00;;;;;;;23.56;49.92;98572.41;1666371;85;21079;-76
2022/10/16 11:16:45;;;;;;;20.80;16.23;;;;;;;23.64;50.48;98570.48;1667131;85;21002;-77
2022/10/16 11:19:49;;;;;;;21.48;16.55;;;;;;;24.35;47.52;98563.78;1666273;85;21097;-77
2022/10/16 11:22:24;;;;;;;23.10;17.73;;;;;;;24.39;49.08;98558.50;1666576;85;20994;-76
2022/10/16 11:25:02;;;;;;;21.65;14.85;;;;;;;24.14;46.47;98550.06;1666603;83;21055;-73
2022/10/16 11:27:58;;;;;;;25.25;16.97;;;;;;;23.51;47.94;98546.18;1666950;83;21010;-74
2022/10/16 11:30:30;;;;;;;24.12;16.90;;;;;;;22.90;48.54;98547.34;1666351;85;21416;-74
2022/10/16 11:33:31;;;;;;;26.73;17.00;;;;;;;22.39;49.37;98547.69;1667070;85;21448;-76
2022/10/16 11:36:09;;;;;;;25.15;16.23;;;;;;;22.25;50.96;98548.66;1666493;85;21011;-76
2022/10/16 11:39:02;;;;;;;25.17;15.50;;;;;;;22.45;49.19;98544.22;1666422;85;21015;-76
2022/10/16 11:41:52;;;;;;;17.40;13.70;;;;;;;22.60;50.78;98539.11;1668631;84;21046;-77
2022/10/16 11:44:47;;;;;;;25.02;14.00;;;;;;;22.85;50.05;98541.88;1670998;84;21121;-76
2022/10/16 11:47:43;;;;;;;15.30;12.80;;;;;;;22.92;48.68;98537.27;1673650;84;21488;-77
2022/10/16 11:50:24;;;;;;;16.07;12.80;;;;;;;22.64;49.35;98536.58;1696796;84;20967;-74
2022/10/16 11:53:16;;;;;;;16.02;12.20;;;;;;;22.37;49.50;98536.63;1679736;84;20971;-77
2022/10/16 11:55:45;;;;;;;17.70;13.72;;;;;;;22.40;50.88;98537.77;1698889;84;21082;-76